Skip Navigation Links Skip Navigation Links

Current Weather

Rochelle Muni Airport-Koritz Field, Rochelle, Ill.

For information only: do not use for flight planning or navigation.
Latest weather
Observation time Tuesday, October 19, 2021 3:55 AM CDT
Local time Tuesday, October 19, 2021 4:21 AM CDT
Flight conditions Visual Meteorological Conditions
Winds
Wind direction South (180°)
Wind speed 3 mph
Visibility 10 mi.
Sky condition
Ceiling unlimited
Sky clear
Temperature 41°F
Dewpoint 40°F
Altimeter 30.10 in.Hg
Derived measurements
Relative humidity 95%
Wind chill 39°F
Density altitude -499 ft.
Remarks
Fully automated report.
Automated weather observing station with precipitation discriminator.
METAR KRPJ 190855Z AUTO 18003KT 10SM CLR 05/04 A3010 RMK AO2 T00510044

Settings

Location code

InnerDrive.Weather 4.0.6770.0 Release CLR 4.0.30319.42000
Copyright ©2018 Inner Drive Technology. All rights reserved. Portions Copyright ©1986-2018 David Braverman.

Find weather

Site navigation


Skip Navigation Links

Place info

Page info

PayPal - The safer, easier way to pay online!

Return home.

Copyright ©2021 Inner Drive Technology. Purveyors of fine, hand-crafted computer software. Page printed 2021-10-19T09:21:38 UTC.